• Join FlightAware (Why Join?)
  • Login
  • US Flag 
10:42PM EDT


 

Airport Tracker/Info


-or-


 

Live Flight TrackerFlight Track Log ✈ THY1073 ✈ 31-Oct-2013 ✈ LTBA / IST - LATI / TIA

Flight Track Log - Related Links

Times and Time Zones

All times are in EDT time to prevent confusion due to time zone crossing. See the THY1073 flight status page for this flight to view local times or setup timezone preferences in your user account.

Time Position Orientation Groundspeed Altitude Reporting Facility
EDT Latitude Longitude Course Direction KTS MPH feet Rate Location/Type
04:52AM 41.0595 27.8337 277° West  Level Estimated
04:53AM 41.0706 27.6925 276° West  Level Estimated
04:54AM 41.0816 27.5512 276° West  Level Estimated
04:55AM 41.0923 27.4098 276° West  Level Estimated
04:56AM 41.1029 27.2684 276° West  Level Estimated
04:57AM 41.1133 27.1270 276° West  Level Estimated
04:58AM 41.1236 26.9855 276° West  Level Estimated
04:59AM 41.1337 26.8440 275° West  Level Estimated
05:00AM 41.1436 26.7024 275° West  Level Estimated
05:01AM 41.1533 26.5608 275° West  Level Estimated
05:02AM 41.1628 26.4192 275° West  Level Estimated
05:03AM 41.1722 26.2775 275° West  Level Estimated
05:04AM 41.1814 26.1357 275° West  Level Estimated
05:05AM 41.1905 25.9940 275° West  Level Estimated
05:06AM 41.1993 25.8522 275° West  Level Estimated
05:07AM 41.2080 25.7103 275° West  Level Estimated
05:08AM 41.2165 25.5684 275° West  Level Estimated
05:09AM 41.2249 25.4265 275° West  Level Estimated
05:10AM 41.2330 25.2845 274° West  Level Estimated
05:11AM 41.2410 25.1425 274° West  Level Estimated
05:12AM 41.2488 25.0005 274° West  Level Estimated
05:13AM 41.2565 24.8584 274° West  Level Estimated
05:14AM 41.2640 24.7164 274° West  Level Estimated
05:15AM 41.2712 24.5742 274° West  Level Estimated
05:16AM 41.2784 24.4321 274° West  Level Estimated
05:17AM 41.2853 24.2899 274° West  Level Estimated
05:18AM 41.2921 24.1476 274° West  Level Estimated
05:19AM 41.2987 24.0054 274° West  Level Estimated
05:20AM 41.3051 23.8631 273° West  Level Estimated
05:21AM 41.3113 23.7208 273° West  Level Estimated
05:22AM 41.3174 23.5785 273° West  Level Estimated
05:23AM 41.3233 23.4361 273° West  Level Estimated
05:24AM 41.3290 23.2938 273° West  Level Estimated
05:25AM 41.3345 23.1513 273° West  Level Estimated
05:26AM 41.3399 23.0089 273° West  Level Estimated
05:27AM 41.3451 22.8665 273° West  Level Estimated
05:28AM 41.3501 22.7240 273° West  Level Estimated
05:29AM 41.3549 22.5815 273° West  Level Estimated
05:30AM 41.3596 22.4390 273° West  Level Estimated
05:31AM 41.3641 22.2964 272° West  Level Estimated
05:32AM 41.3684 22.1539 272° West  Level Estimated
05:33AM 41.3725 22.0113 272° West  Level Estimated
05:34AM 41.3765 21.8687 272° West  Level Estimated
05:35AM 41.3802 21.7261 272° West  Level Estimated
05:36AM 41.3839 21.5835 272° West  Level Estimated
05:37AM 41.3873 21.4408 272° West  Level Estimated
05:38AM 41.3905 21.2981 272° West  Level Estimated
05:39AM 41.3936 21.1555 272° West  Level Estimated
05:40AM 41.3965 21.0128 272° West  Level Estimated
05:41AM 41.3992 20.8701 272° West  Level Estimated
05:42AM 41.4018 20.7274 271° West  Level Estimated
05:43AM 41.4041 20.5847 271° West  Level Estimated
05:44AM 41.4063 20.4419 271° West  Level Estimated
05:45AM 41.4084 20.2992 271° West  Level Estimated
05:46AM 41.4102 20.1564 271° West  Level Estimated
05:47AM 41.4119 20.0137 271° West  Level Estimated
05:48AM 41.4134 19.8709 271° West  Level Estimated
05:49AM 41.4147 19.7281 271° West  Level Estimated
05:50AM 41.4147 19.7206 271° West  Level Estimated
05:51AM 41.4147 19.7206 21° North  Level Estimated
05:52AM 41.4147 19.7206 21° North  Level Estimated
05:53AM 41.4147 19.7206 21° North  Level Estimated
05:54AM 41.4147 19.7206 21° North  Level Estimated
05:55AM 41.4147 19.7206 21° North  Level Estimated
05:56AM 41.4147 19.7206 21° North  Level Estimated
05:57AM 41.4147 19.7206 21° North  Level Estimated
05:58AM 41.4147 19.7206 21° North  Level Estimated
05:59AM 41.4147 19.7206 21° North  Level Estimated
06:00AM 41.4147 19.7206 21° North  Level Estimated
06:01AM 41.4147 19.7206 21° North  Level Estimated
06:02AM 41.4147 19.7206 21° North  Level Estimated
06:03AM 41.4147 19.7206 21° North  Level Estimated
06:04AM 41.4147 19.7206 21° North  Level Estimated
06:05AM 41.4147 19.7206 21° North  Level Estimated